Portada
METAR-TAF:

METAR-TAF

Aeropuertos :

Selma, Alabama, Estados Unidos

latitud: 32-20-38N, longitud: 086-59-16W, altitud: 51 m

Observación

El informe se hizo hace 14 minutos, a las 18:55 UTC
Viento 9 kt del noreste
Temperatura 10°C
Humedad 93%
Presión 1021 hPa
Visibilidad: 4.0 km
Escasas nubes a una altura de 1400 ft
Escasas nubes a una altura de 2800 ft
Nubes dispersas a una altura de 4500 ft
lluvia ligera

METAR: KSEM 201855Z AUTO 05009KT 2 1/2SM -RA FEW014 FEW028 SCT045 10/09 A3016 RMK AO2

Hora: 13:09 (19:09 UTC)


TAF: falta

Observaciones y pronósticos meteorológicos de más de 4000 aeropuertos (mensajes METAR y TAF).

Los puntos amarillos y rojos representan las estaciones disponibles.

Ponga el ratón en el punto deseado para ver el nombre de la estación.

Haga clic para ver las observaciones y los pronósticos meteorológicos.

Para cambiar el mapa : haga clic en los botones verdes con una cruz de color negro para hacer un zoom, en el botón verde con un guión para alejar o en las flechas verdes para mapas adyacentes.


METAR-TAF: